Time;durP1;ratioP1;P1;durP2;ratioP2;P2;SDS_P1;SDS_P2;PMS_P1;PMS_P2;Temp;Humidity;BMP_temperature;BMP_pressure;BME280_temperature;BME280_humidity;BME280_pressure;Samples;Min_cycle;Max_cycle;Signal;HPM_P1;HPM_P2
2021/12/24 00:01:55;;;;;;;64.63;30.35;;;;;;;;;;5007794;28;20033;-68
2021/12/24 00:04:22;;;;;;;57.55;29.20;;;;;;;;;;4993661;28;20030;-69
2021/12/24 00:06:49;;;;;;;62.05;31.60;;;;;;;;;;4993437;28;20022;-66
2021/12/24 00:09:22;;;;;;;58.05;30.35;;;;;;;;;;4993401;28;20527;-66
2021/12/24 00:11:49;;;;;;;59.65;28.60;;;;;;;;;;4997740;28;20026;-68
2021/12/24 00:14:15;;;;;;;63.67;29.95;;;;;;;;;;5008829;28;20137;-67
2021/12/24 00:16:50;;;;;;;65.05;29.00;;;;;;;;;;5013669;28;20033;-68
2021/12/24 00:19:24;;;;;;;56.85;30.25;;;;;;;;;;5013911;28;20048;-65
2021/12/24 00:35:32;;;;;;;52.35;25.40;;;;;;;;;;5012232;28;20033;-66
2021/12/24 00:38:03;;;;;;;50.80;24.83;;;;;;;;;;5013584;28;20064;-66
2021/12/24 00:40:31;;;;;;;60.90;24.70;;;;;;;;;;5028049;28;20451;-66
2021/12/24 00:42:57;;;;;;;53.72;25.17;;;;;;;;;;5013342;28;20034;-68
2021/12/24 00:45:27;;;;;;;46.42;25.23;;;;;;;;;;5011411;28;20029;-67
2021/12/24 00:47:54;;;;;;;48.47;23.35;;;;;;;;;;5013464;28;20026;-66
2021/12/24 00:50:25;;;;;;;38.42;20.27;;;;;;;;;;5012314;28;20026;-66
2021/12/24 00:52:56;;;;;;;38.38;17.13;;;;;;;;;;5012721;28;20038;-66
2021/12/24 00:55:25;;;;;;;34.13;17.75;;;;;;;;;;5012160;28;20100;-65
2021/12/24 00:57:54;;;;;;;41.67;19.73;;;;;;;;;;5028392;28;20026;-67
2021/12/24 01:00:36;;;;;;;36.83;19.90;;;;;;;;;;5011573;28;20547;-66
2021/12/24 01:03:05;;;;;;;35.92;17.83;;;;;;;;;;5012117;28;20030;-67
2021/12/24 01:05:33;;;;;;;36.63;18.52;;;;;;;;;;5011737;28;20492;-67
2021/12/24 01:08:00;;;;;;;38.72;18.40;;;;;;;;;;4995627;28;20037;-67
2021/12/24 01:10:32;;;;;;;41.58;19.77;;;;;;;;;;5011449;28;20496;-66
2021/12/24 01:12:58;;;;;;;45.63;19.92;;;;;;;;;;5012043;28;20063;-65
2021/12/24 01:15:25;;;;;;;34.67;18.95;;;;;;;;;;5011333;28;20025;-65
2021/12/24 01:18:42;;;;;;;37.00;18.98;;;;;;;;;;5007499;28;20054;-65
2021/12/24 01:20:48;;;;;;;35.08;18.23;;;;;;;;;;4996834;28;20042;-67
2021/12/24 01:25:48;;;;;;;37.05;19.88;;;;;;;;;;4992602;28;19917;-68
2021/12/24 01:39:08;;;;;;;37.35;19.98;;;;;;;;;;4991632;28;20044;-66
2021/12/24 01:44:26;;;;;;;55.08;26.55;;;;;;;;;;5010602;28;20046;-65
2021/12/24 01:46:56;;;;;;;54.28;26.48;;;;;;;;;;5011286;28;20495;-64
2021/12/24 01:49:22;;;;;;;54.85;24.70;;;;;;;;;;5011059;28;20516;-65
2021/12/24 01:51:49;;;;;;;57.42;25.33;;;;;;;;;;5011728;28;20084;-65
2021/12/24 01:54:15;;;;;;;58.45;26.58;;;;;;;;;;5010549;28;20120;-65
2021/12/24 01:56:42;;;;;;;49.83;25.50;;;;;;;;;;5010505;28;20572;-65
2021/12/24 01:59:08;;;;;;;46.97;23.70;;;;;;;;;;5009854;28;20361;-68
2021/12/24 02:01:34;;;;;;;45.58;22.77;;;;;;;;;;5010785;28;20117;-66
2021/12/24 02:03:59;;;;;;;46.05;22.52;;;;;;;;;;5010790;28;20141;-65
2021/12/24 02:06:25;;;;;;;46.78;21.85;;;;;;;;;;5010411;28;20120;-65
2021/12/24 02:08:51;;;;;;;44.13;22.05;;;;;;;;;;5010401;28;20036;-65
2021/12/24 02:11:17;;;;;;;46.72;22.33;;;;;;;;;;5011922;28;20088;-63
2021/12/24 02:13:43;;;;;;;43.40;22.88;;;;;;;;;;5010336;28;20025;-65
2021/12/24 02:29:53;;;;;;;38.10;19.17;;;;;;;;;;5009952;28;20034;-63
2021/12/24 02:32:19;;;;;;;35.17;18.25;;;;;;;;;;5010581;28;20064;-64
2021/12/24 02:34:44;;;;;;;34.22;18.20;;;;;;;;;;5010353;28;20030;-65
2021/12/24 02:37:10;;;;;;;29.25;16.98;;;;;;;;;;5009943;28;20104;-64
2021/12/24 02:39:37;;;;;;;32.00;16.17;;;;;;;;;;5010608;28;20033;-64
2021/12/24 02:42:30;;;;;;;33.53;17.63;;;;;;;;;;5011794;28;20381;-64
2021/12/24 02:44:56;;;;;;;36.10;18.50;;;;;;;;;;5011582;28;20057;-65
2021/12/24 02:55:12;;;;;;;36.60;18.63;;;;;;;;;;5011483;28;20029;-65
2021/12/24 02:57:39;;;;;;;32.13;16.80;;;;;;;;;;5010964;28;20048;-65
2021/12/24 03:00:19;;;;;;;27.63;16.30;;;;;;;;;;5011158;28;20037;-65
2021/12/24 03:02:46;;;;;;;30.45;15.77;;;;;;;;;;5010125;28;20496;-67
2021/12/24 03:05:14;;;;;;;30.38;15.75;;;;;;;;;;5011965;28;20025;-67
2021/12/24 03:07:41;;;;;;;29.65;16.30;;;;;;;;;;5015217;28;20049;-65
2021/12/24 03:10:13;;;;;;;33.05;18.02;;;;;;;;;;5013959;28;20032;-63
2021/12/24 03:12:39;;;;;;;39.15;17.17;;;;;;;;;;5014342;28;20041;-65
2021/12/24 03:15:07;;;;;;;33.90;16.83;;;;;;;;;;5009885;28;20061;-65
2021/12/24 03:17:33;;;;;;;30.08;16.23;;;;;;;;;;5013057;28;20030;-65
2021/12/24 03:20:07;;;;;;;33.40;18.70;;;;;;;;;;5029681;28;20429;-66
2021/12/24 03:25:05;;;;;;;37.55;16.52;;;;;;;;;;5014633;28;20106;-65
2021/12/24 03:27:30;;;;;;;39.03;18.17;;;;;;;;;;5013038;28;20121;-64
2021/12/24 03:29:57;;;;;;;34.85;18.40;;;;;;;;;;5014626;28;20121;-65
2021/12/24 03:32:25;;;;;;;35.60;18.70;;;;;;;;;;5013396;28;20053;-65
2021/12/24 03:34:53;;;;;;;41.30;19.13;;;;;;;;;;5029643;28;20120;-68
2021/12/24 03:37:18;;;;;;;33.70;17.63;;;;;;;;;;5013289;28;20034;-65
2021/12/24 03:39:44;;;;;;;33.95;17.73;;;;;;;;;;5012839;28;20513;-65
2021/12/24 03:42:11;;;;;;;33.05;17.70;;;;;;;;;;5014087;28;20091;-64
2021/12/24 03:44:43;;;;;;;28.23;17.13;;;;;;;;;;5013290;28;20030;-64
2021/12/24 03:47:13;;;;;;;34.22;17.52;;;;;;;;;;5013216;28;20038;-64
2021/12/24 03:52:34;;;;;;;36.35;19.05;;;;;;;;;;5012974;28;20038;-66
2021/12/24 03:55:02;;;;;;;37.00;17.77;;;;;;;;;;5029615;28;20489;-65
2021/12/24 03:57:36;;;;;;;32.25;17.10;;;;;;;;;;5012767;28;20030;-64
2021/12/24 04:00:24;;;;;;;27.27;15.15;;;;;;;;;;5014360;28;20076;-65
2021/12/24 04:03:10;;;;;;;30.50;15.55;;;;;;;;;;5014179;28;20563;-64
2021/12/24 04:05:43;;;;;;;37.40;18.88;;;;;;;;;;5013571;28;20064;-63
2021/12/24 04:08:27;;;;;;;34.45;19.08;;;;;;;;;;5014194;28;20144;-66
2021/12/24 04:11:12;;;;;;;31.52;17.77;;;;;;;;;;5012535;28;20124;-65
2021/12/24 04:13:39;;;;;;;36.25;19.48;;;;;;;;;;5012174;28;20073;-65
2021/12/24 04:16:05;;;;;;;52.05;23.75;;;;;;;;;;5005900;28;20465;-65
2021/12/24 04:26:52;;;;;;;51.38;25.23;;;;;;;;;;5012023;28;20033;-64
2021/12/24 04:29:20;;;;;;;56.33;24.60;;;;;;;;;;5011858;28;20390;-65
2021/12/24 04:31:55;;;;;;;44.38;17.52;;;;;;;;;;5012263;28;20456;-65
2021/12/24 04:34:45;;;;;;;35.65;17.50;;;;;;;;;;5012192;28;20062;-65
2021/12/24 04:51:19;;;;;;;35.47;16.70;;;;;;;;;;5012267;28;20030;-66
2021/12/24 05:04:56;;;;;;;33.67;18.30;;;;;;;;;;5011388;28;20052;-64
2021/12/24 05:09:51;;;;;;;40.25;20.85;;;;;;;;;;5011269;28;20143;-65
2021/12/24 05:12:17;;;;;;;38.88;20.08;;;;;;;;;;5011367;28;20069;-65
2021/12/24 05:14:43;;;;;;;39.83;19.92;;;;;;;;;;5008885;28;20662;-65
2021/12/24 05:17:47;;;;;;;33.50;17.05;;;;;;;;;;5005858;28;20042;-64
2021/12/24 05:23:28;;;;;;;42.22;21.02;;;;;;;;;;5012219;28;20038;-67
2021/12/24 05:25:54;;;;;;;47.75;22.38;;;;;;;;;;5014921;28;20088;-67
2021/12/24 05:28:20;;;;;;;40.42;20.50;;;;;;;;;;5022227;28;20049;-69
2021/12/24 05:30:47;;;;;;;66.25;22.83;;;;;;;;;;5026080;28;20052;-68
2021/12/24 05:33:15;;;;;;;49.92;21.85;;;;;;;;;;5024018;28;20034;-69
2021/12/24 05:35:43;;;;;;;50.30;21.90;;;;;;;;;;5024251;28;20033;-68
2021/12/24 05:38:10;;;;;;;41.58;20.33;;;;;;;;;;4999544;28;20057;-67
2021/12/24 05:40:37;;;;;;;53.60;21.13;;;;;;;;;;4990601;28;20030;-68
2021/12/24 05:43:03;;;;;;;42.00;20.27;;;;;;;;;;4990799;28;20089;-69
2021/12/24 05:45:30;;;;;;;44.28;21.48;;;;;;;;;;5007725;28;20030;-68
2021/12/24 05:48:11;;;;;;;43.20;21.55;;;;;;;;;;4992318;28;20109;-68
2021/12/24 05:50:37;;;;;;;47.50;21.38;;;;;;;;;;4991171;28;20038;-68
2021/12/24 05:53:38;;;;;;;48.63;22.05;;;;;;;;;;5007820;28;20034;-66
2021/12/24 05:56:14;;;;;;;46.58;23.02;;;;;;;;;;4990911;28;20132;-69
2021/12/24 05:58:43;;;;;;;45.88;23.42;;;;;;;;;;4990663;28;20080;-67
2021/12/24 06:01:09;;;;;;;54.95;24.08;;;;;;;;;;4991344;28;20026;-67
2021/12/24 06:03:44;;;;;;;44.80;22.13;;;;;;;;;;4992255;28;20075;-68
2021/12/24 06:06:10;;;;;;;46.40;21.45;;;;;;;;;;4992951;28;20511;-67
2021/12/24 06:08:36;;;;;;;45.42;25.38;;;;;;;;;;4993392;28;20022;-68
2021/12/24 06:11:02;;;;;;;49.80;24.13;;;;;;;;;;4993102;28;20026;-67
2021/12/24 06:13:29;;;;;;;53.50;24.73;;;;;;;;;;4993081;28;20030;-68
2021/12/24 06:15:55;;;;;;;48.58;23.10;;;;;;;;;;4992783;28;20040;-69
2021/12/24 06:18:26;;;;;;;52.33;22.73;;;;;;;;;;4992945;28;20026;-68
2021/12/24 06:20:58;;;;;;;46.88;21.77;;;;;;;;;;4992944;28;20026;-68
2021/12/24 06:23:26;;;;;;;43.05;22.33;;;;;;;;;;4992870;28;20085;-67
2021/12/24 06:25:54;;;;;;;43.05;20.05;;;;;;;;;;4992863;28;20383;-69
2021/12/24 06:28:22;;;;;;;48.40;21.48;;;;;;;;;;4992675;28;20066;-68
2021/12/24 06:30:49;;;;;;;38.97;20.83;;;;;;;;;;4992755;28;20066;-69
2021/12/24 06:33:15;;;;;;;37.95;17.85;;;;;;;;;;4999464;28;20034;-68
2021/12/24 06:35:41;;;;;;;41.80;21.58;;;;;;;;;;4992895;28;20026;-67
2021/12/24 06:38:08;;;;;;;32.10;17.75;;;;;;;;;;4992830;28;20549;-69
2021/12/24 06:40:34;;;;;;;37.20;19.08;;;;;;;;;;4993043;28;20025;-72
2021/12/24 06:43:00;;;;;;;37.72;17.98;;;;;;;;;;5011715;28;20381;-68
2021/12/24 06:45:26;;;;;;;35.15;19.17;;;;;;;;;;5005227;28;20026;-67
2021/12/24 06:47:54;;;;;;;33.55;16.95;;;;;;;;;;5003340;28;20038;-67
2021/12/24 06:50:20;;;;;;;29.90;15.98;;;;;;;;;;5006203;28;20038;-70
2021/12/24 06:52:46;;;;;;;27.48;15.80;;;;;;;;;;4992554;28;20481;-68
2021/12/24 06:55:13;;;;;;;35.28;18.15;;;;;;;;;;4998041;28;20033;-68
2021/12/24 06:57:41;;;;;;;32.30;17.55;;;;;;;;;;5010763;28;20065;-69
2021/12/24 07:00:14;;;;;;;28.42;16.23;;;;;;;;;;5026812;28;20033;-67
2021/12/24 07:02:42;;;;;;;28.63;15.50;;;;;;;;;;5009549;28;20552;-68
2021/12/24 07:05:08;;;;;;;32.58;16.13;;;;;;;;;;5011774;28;20034;-70
2021/12/24 07:07:34;;;;;;;26.55;14.40;;;;;;;;;;5011790;28;20084;-70
2021/12/24 07:10:00;;;;;;;24.20;13.90;;;;;;;;;;5011479;28;20026;-69
2021/12/24 07:12:26;;;;;;;24.15;14.05;;;;;;;;;;5011924;28;20065;-68
2021/12/24 07:14:51;;;;;;;24.70;14.60;;;;;;;;;;5012007;28;20457;-70
2021/12/24 07:17:17;;;;;;;41.10;18.52;;;;;;;;;;5011322;28;20034;-70
2021/12/24 07:19:43;;;;;;;33.55;19.27;;;;;;;;;;5011652;28;20030;-68
2021/12/24 07:22:12;;;;;;;40.63;21.60;;;;;;;;;;5010547;28;20030;-71
2021/12/24 07:24:38;;;;;;;38.78;23.08;;;;;;;;;;5011681;28;20345;-70
2021/12/24 07:27:04;;;;;;;44.47;23.02;;;;;;;;;;5011994;28;20130;-68
2021/12/24 07:29:31;;;;;;;40.42;22.52;;;;;;;;;;5030959;28;20034;-69
2021/12/24 07:31:57;;;;;;;40.55;17.65;;;;;;;;;;5031113;28;20052;-70
2021/12/24 07:34:23;;;;;;;42.00;22.30;;;;;;;;;;5031546;28;20434;-70
2021/12/24 07:36:49;;;;;;;40.85;21.83;;;;;;;;;;5031652;28;20041;-69
2021/12/24 07:39:16;;;;;;;40.38;22.05;;;;;;;;;;5030402;28;20411;-68
2021/12/24 07:41:42;;;;;;;42.22;24.98;;;;;;;;;;5031425;28;20040;-70
2021/12/24 07:44:08;;;;;;;42.08;22.83;;;;;;;;;;5031685;28;20025;-69
2021/12/24 07:46:46;;;;;;;40.97;23.63;;;;;;;;;;5031907;28;20036;-71
2021/12/24 07:52:00;;;;;;;38.72;21.27;;;;;;;;;;5031303;28;20056;-68
2021/12/24 07:54:27;;;;;;;51.92;23.50;;;;;;;;;;5034008;28;20029;-70
2021/12/24 07:56:53;;;;;;;35.50;19.05;;;;;;;;;;5034563;28;20029;-68
2021/12/24 07:59:19;;;;;;;37.10;21.70;;;;;;;;;;5034783;28;20045;-67
2021/12/24 08:01:46;;;;;;;44.70;22.42;;;;;;;;;;5034663;28;20033;-66
2021/12/24 08:04:13;;;;;;;36.03;20.10;;;;;;;;;;5018421;28;20102;-69
2021/12/24 08:06:39;;;;;;;37.08;19.30;;;;;;;;;;5014475;28;20028;-70
2021/12/24 08:09:08;;;;;;;35.22;17.83;;;;;;;;;;5014167;28;20069;-69
2021/12/24 08:11:35;;;;;;;33.28;16.83;;;;;;;;;;5014833;28;20114;-68
2021/12/24 08:14:01;;;;;;;28.17;16.15;;;;;;;;;;5014358;28;20096;-70
2021/12/24 08:16:29;;;;;;;31.70;16.88;;;;;;;;;;5014337;28;20104;-69
2021/12/24 08:18:55;;;;;;;39.42;19.40;;;;;;;;;;5014450;28;20485;-68
2021/12/24 08:21:21;;;;;;;32.47;18.23;;;;;;;;;;5013622;28;20417;-70
2021/12/24 08:23:48;;;;;;;37.65;20.58;;;;;;;;;;5014093;28;20065;-67
2021/12/24 08:26:15;;;;;;;39.67;21.38;;;;;;;;;;5014882;28;20043;-69
2021/12/24 08:28:41;;;;;;;33.97;19.27;;;;;;;;;;5014334;28;20052;-68
2021/12/24 08:31:07;;;;;;;42.88;21.75;;;;;;;;;;5014115;28;20038;-70
2021/12/24 08:33:34;;;;;;;38.28;20.42;;;;;;;;;;5014042;28;20503;-71
2021/12/24 08:36:01;;;;;;;39.22;20.73;;;;;;;;;;5014191;28;20380;-68
2021/12/24 08:38:27;;;;;;;37.85;21.20;;;;;;;;;;5014278;28;20069;-70
2021/12/24 08:40:52;;;;;;;36.97;20.00;;;;;;;;;;5013798;28;20480;-70
2021/12/24 08:43:18;;;;;;;33.50;18.70;;;;;;;;;;5013970;28;20121;-73
2021/12/24 08:45:44;;;;;;;34.55;18.70;;;;;;;;;;5013547;28;20480;-70
2021/12/24 08:48:10;;;;;;;35.25;20.00;;;;;;;;;;5009686;28;20045;-68
2021/12/24 08:50:36;;;;;;;36.25;19.20;;;;;;;;;;5008502;28;20022;-68
2021/12/24 08:53:02;;;;;;;42.15;17.50;;;;;;;;;;4993956;28;20058;-70
2021/12/24 08:55:28;;;;;;;35.67;20.35;;;;;;;;;;4996960;28;20473;-69
2021/12/24 08:57:54;;;;;;;37.15;20.63;;;;;;;;;;5006715;28;20048;-69
2021/12/24 09:00:21;;;;;;;36.03;20.73;;;;;;;;;;5013326;28;20033;-68
2021/12/24 09:02:47;;;;;;;43.22;23.40;;;;;;;;;;5013715;28;20499;-69
2021/12/24 09:05:13;;;;;;;40.45;22.70;;;;;;;;;;5002625;28;20030;-69
2021/12/24 09:07:41;;;;;;;77.60;25.17;;;;;;;;;;5008261;28;20069;-68
2021/12/24 09:10:09;;;;;;;40.63;22.88;;;;;;;;;;4996873;28;20029;-71
2021/12/24 09:12:35;;;;;;;35.75;18.45;;;;;;;;;;5001209;28;20049;-72
2021/12/24 09:15:02;;;;;;;39.55;22.65;;;;;;;;;;5011926;28;20069;-69
2021/12/24 09:17:29;;;;;;;40.75;23.23;;;;;;;;;;5028567;28;20083;-67
2021/12/24 09:19:56;;;;;;;45.65;24.77;;;;;;;;;;5028756;28;20377;-69
2021/12/24 09:22:29;;;;;;;45.53;24.05;;;;;;;;;;5012660;28;20042;-70
2021/12/24 09:24:56;;;;;;;39.05;23.05;;;;;;;;;;5012701;28;20063;-69
2021/12/24 09:27:22;;;;;;;43.15;25.58;;;;;;;;;;5012634;28;20365;-68
2021/12/24 09:29:48;;;;;;;48.72;25.65;;;;;;;;;;5007191;28;20038;-68
2021/12/24 09:32:15;;;;;;;44.22;25.35;;;;;;;;;;5000331;28;20030;-68
2021/12/24 09:34:41;;;;;;;45.97;26.25;;;;;;;;;;4992973;28;20034;-70
2021/12/24 09:37:07;;;;;;;57.20;27.08;;;;;;;;;;4991602;28;20030;-67
2021/12/24 09:39:34;;;;;;;51.40;27.25;;;;;;;;;;4993235;28;20042;-68
2021/12/24 09:42:00;;;;;;;40.80;24.63;;;;;;;;;;4993240;28;20120;-70
2021/12/24 09:44:26;;;;;;;40.70;25.17;;;;;;;;;;4993135;28;20042;-69
2021/12/24 09:46:52;;;;;;;49.67;28.35;;;;;;;;;;4992965;28;20029;-67
2021/12/24 09:49:20;;;;;;;49.67;27.55;;;;;;;;;;4992418;28;20097;-69
2021/12/24 09:51:50;;;;;;;49.72;27.67;;;;;;;;;;4994189;28;20385;-69
2021/12/24 09:54:18;;;;;;;50.85;26.92;;;;;;;;;;5012561;28;20417;-68
2021/12/24 09:56:45;;;;;;;50.15;27.58;;;;;;;;;;5008473;28;20536;-71
2021/12/24 09:59:11;;;;;;;49.92;26.70;;;;;;;;;;4993079;28;20065;-70
2021/12/24 10:01:43;;;;;;;39.70;23.02;;;;;;;;;;5008153;28;20021;-68
2021/12/24 10:04:16;;;;;;;43.33;23.67;;;;;;;;;;5004586;28;20042;-68
2021/12/24 10:07:03;;;;;;;36.83;21.48;;;;;;;;;;4992880;28;20040;-67
2021/12/24 10:09:32;;;;;;;47.15;21.38;;;;;;;;;;4994917;28;20073;-68
2021/12/24 10:12:04;;;;;;;43.63;22.92;;;;;;;;;;5012560;28;20018;-68
2021/12/24 10:14:57;;;;;;;43.72;22.33;;;;;;;;;;5011233;28;20537;-68
2021/12/24 10:17:35;;;;;;;38.22;19.92;;;;;;;;;;5011799;28;20050;-69
2021/12/24 10:20:14;;;;;;;35.63;21.35;;;;;;;;;;5011988;28;20049;-68
2021/12/24 10:22:43;;;;;;;37.83;21.05;;;;;;;;;;5011754;28;20044;-69
2021/12/24 10:25:12;;;;;;;41.95;21.67;;;;;;;;;;5012032;28;20032;-71
2021/12/24 10:27:38;;;;;;;36.95;22.17;;;;;;;;;;5012156;28;20046;-68
2021/12/24 10:30:16;;;;;;;37.85;20.77;;;;;;;;;;5012005;28;20551;-69
2021/12/24 10:32:42;;;;;;;37.25;20.88;;;;;;;;;;5010904;28;20132;-70
2021/12/24 10:35:34;;;;;;;36.67;20.20;;;;;;;;;;5011979;28;20104;-68
2021/12/24 10:38:19;;;;;;;33.30;20.45;;;;;;;;;;5011831;28;20065;-71
2021/12/24 10:41:04;;;;;;;39.17;19.95;;;;;;;;;;5011976;28;20048;-70
2021/12/24 10:43:35;;;;;;;38.20;22.17;;;;;;;;;;5013100;28;20034;-70
2021/12/24 10:46:17;;;;;;;37.30;21.50;;;;;;;;;;5012295;28;20112;-71
2021/12/24 10:49:08;;;;;;;27.67;18.40;;;;;;;;;;5011902;28;20033;-73
2021/12/24 10:52:13;;;;;;;37.30;19.27;;;;;;;;;;5002771;28;20488;-71
2021/12/24 10:54:55;;;;;;;33.75;19.38;;;;;;;;;;4991501;28;20042;-65
2021/12/24 10:57:24;;;;;;;33.88;22.08;;;;;;;;;;4998557;28;20493;-67
2021/12/24 10:59:54;;;;;;;33.72;20.90;;;;;;;;;;5003233;28;20583;-68
2021/12/24 11:02:24;;;;;;;35.63;21.83;;;;;;;;;;5008126;28;20034;-68
2021/12/24 11:04:53;;;;;;;43.17;23.60;;;;;;;;;;4992209;28;20034;-67
2021/12/24 11:07:39;;;;;;;40.05;24.48;;;;;;;;;;4995851;28;20026;-70
2021/12/24 11:10:12;;;;;;;44.35;24.42;;;;;;;;;;5004340;28;20492;-68
2021/12/24 11:12:40;;;;;;;;;;;;;;;;;;5011677;28;20042;-65
2021/12/24 11:15:26;;;;;;;46.08;22.33;;;;;;;;;;5011215;28;19921;-68
2021/12/24 11:17:58;;;;;;;43.10;24.77;;;;;;;;;;5007761;28;20049;-67
2021/12/24 11:20:25;;;;;;;43.47;26.30;;;;;;;;;;5010488;28;20033;-67
2021/12/24 11:22:57;;;;;;;42.58;26.80;;;;;;;;;;5010940;28;20029;-67
2021/12/24 11:25:25;;;;;;;43.58;26.27;;;;;;;;;;5011349;28;20032;-67
2021/12/24 11:27:51;;;;;;;46.65;26.73;;;;;;;;;;5014210;28;20417;-67
2021/12/24 11:30:19;;;;;;;39.42;24.77;;;;;;;;;;5013792;28;20080;-67
2021/12/24 11:32:45;;;;;;;40.08;25.65;;;;;;;;;;5013529;28;20033;-64
2021/12/24 11:35:13;;;;;;;43.15;25.92;;;;;;;;;;5015159;28;20121;-65
2021/12/24 11:37:44;;;;;;;40.17;25.25;;;;;;;;;;5014924;28;20029;-63
2021/12/24 11:40:13;;;;;;;39.80;25.92;;;;;;;;;;5014903;28;20041;-63
2021/12/24 11:42:44;;;;;;;42.08;24.05;;;;;;;;;;5010821;28;20066;-67
2021/12/24 11:45:10;;;;;;;41.65;27.13;;;;;;;;;;5009379;28;20472;-64
2021/12/24 11:47:36;;;;;;;39.75;24.38;;;;;;;;;;5004050;28;20038;-64
2021/12/24 11:50:03;;;;;;;42.83;25.17;;;;;;;;;;4995516;28;20113;-66
2021/12/24 11:52:29;;;;;;;40.05;24.20;;;;;;;;;;5006567;28;20073;-65
2021/12/24 11:55:00;;;;;;;40.67;23.98;;;;;;;;;;4999850;28;20030;-68
2021/12/24 11:57:26;;;;;;;37.92;23.58;;;;;;;;;;4994648;28;20038;-69
2021/12/24 11:59:52;;;;;;;50.45;24.50;;;;;;;;;;4994429;28;20026;-68
2021/12/24 12:02:45;;;;;;;42.05;23.52;;;;;;;;;;4992919;28;20786;-67
2021/12/24 12:05:12;;;;;;;36.47;21.02;;;;;;;;;;4993573;28;20054;-64
2021/12/24 12:07:38;;;;;;;33.33;19.52;;;;;;;;;;4993774;28;20045;-71
2021/12/24 12:10:04;;;;;;;39.45;21.63;;;;;;;;;;4993978;28;20449;-64
2021/12/24 12:12:43;;;;;;;42.65;21.33;;;;;;;;;;4993575;28;20022;-68
2021/12/24 12:15:26;;;;;;;38.88;22.20;;;;;;;;;;4992926;28;20031;-66
2021/12/24 12:17:58;;;;;;;38.83;21.17;;;;;;;;;;4994095;28;20121;-72
2021/12/24 12:20:55;;;;;;;32.63;20.33;;;;;;;;;;4993692;28;20034;-66
2021/12/24 12:23:44;;;;;;;31.48;20.20;;;;;;;;;;4993212;28;20034;-66
2021/12/24 12:26:48;;;;;;;37.60;20.55;;;;;;;;;;4993166;28;20491;-69
2021/12/24 12:29:19;;;;;;;41.13;22.60;;;;;;;;;;4992035;28;20050;-65
2021/12/24 12:31:47;;;;;;;34.85;21.10;;;;;;;;;;5010967;28;20581;-72
2021/12/24 12:34:43;;;;;;;35.25;21.45;;;;;;;;;;5014951;28;20022;-73
2021/12/24 12:37:28;;;;;;;49.45;23.55;;;;;;;;;;5014243;28;20481;-67
2021/12/24 12:40:17;;;;;;;41.65;23.17;;;;;;;;;;5013452;28;20034;-68
2021/12/24 12:42:53;;;;;;;36.58;21.15;;;;;;;;;;5015615;28;20049;-71
2021/12/24 12:45:31;;;;;;;35.00;21.40;;;;;;;;;;5014213;28;20042;-65
2021/12/24 12:48:00;;;;;;;36.13;20.02;;;;;;;;;;5013123;28;20034;-69
2021/12/24 12:50:28;;;;;;;37.95;21.20;;;;;;;;;;5013444;28;20057;-72
2021/12/24 12:53:22;;;;;;;36.40;21.38;;;;;;;;;;5014004;28;20034;-66
2021/12/24 12:56:08;;;;;;;41.75;22.27;;;;;;;;;;5013964;28;20080;-68
2021/12/24 12:58:34;;;;;;;37.25;22.33;;;;;;;;;;5013768;28;20038;-75
2021/12/24 13:01:16;;;;;;;34.85;20.50;;;;;;;;;;5014050;28;20038;-68
2021/12/24 13:04:09;;;;;;;39.22;22.08;;;;;;;;;;5013776;28;20042;-76
2021/12/24 13:06:36;;;;;;;47.03;24.80;;;;;;;;;;5013665;28;20049;-76
2021/12/24 13:09:07;;;;;;;43.55;22.70;;;;;;;;;;5013462;28;20029;-66
2021/12/24 13:11:46;;;;;;;37.00;22.58;;;;;;;;;;5013380;28;20432;-72
2021/12/24 13:14:14;;;;;;;40.63;23.40;;;;;;;;;;5013503;28;20038;-75
2021/12/24 13:16:47;;;;;;;42.25;22.63;;;;;;;;;;5013506;28;20034;-69
2021/12/24 13:24:50;;;;;;;36.97;21.50;;;;;;;;;;5013901;28;20038;-70
2021/12/24 13:27:17;;;;;;;36.22;20.33;;;;;;;;;;5011694;28;20030;-77
2021/12/24 13:29:44;;;;;;;34.20;21.73;;;;;;;;;;5012056;28;20433;-76
2021/12/24 13:32:09;;;;;;;36.85;21.13;;;;;;;;;;5013373;28;20029;-72
2021/12/24 13:34:36;;;;;;;46.78;25.05;;;;;;;;;;5012908;28;20030;-77
2021/12/24 13:37:16;;;;;;;50.00;24.25;;;;;;;;;;5012955;28;20528;-75
2021/12/24 13:39:48;;;;;;;44.95;26.05;;;;;;;;;;5013743;28;20096;-72
2021/12/24 13:42:14;;;;;;;45.58;24.77;;;;;;;;;;5013166;28;20112;-69
2021/12/24 13:44:40;;;;;;;46.78;26.08;;;;;;;;;;5013366;28;20037;-75
2021/12/24 13:47:17;;;;;;;45.70;25.52;;;;;;;;;;5013125;28;20042;-76
2021/12/24 13:55:35;;;;;;;36.50;22.20;;;;;;;;;;5013157;28;20069;-68
2021/12/24 13:58:21;;;;;;;41.33;23.25;;;;;;;;;;5013000;28;20041;-70
2021/12/24 14:00:50;;;;;;;38.47;22.58;;;;;;;;;;5013073;28;20034;-74
2021/12/24 14:03:17;;;;;;;40.92;23.70;;;;;;;;;;5011661;28;20068;-75
2021/12/24 14:05:52;;;;;;;41.63;25.05;;;;;;;;;;5012711;28;20107;-73
2021/12/24 14:08:23;;;;;;;41.72;25.73;;;;;;;;;;5012649;28;20445;-69
2021/12/24 14:11:01;;;;;;;51.10;26.20;;;;;;;;;;5013177;28;20117;-68
2021/12/24 14:13:30;;;;;;;40.80;24.58;;;;;;;;;;5013079;28;20033;-68
2021/12/24 14:16:08;;;;;;;45.47;25.92;;;;;;;;;;5012832;28;20024;-75
2021/12/24 14:24:10;;;;;;;49.33;27.70;;;;;;;;;;5013048;28;20376;-74
2021/12/24 14:26:38;;;;;;;50.60;27.70;;;;;;;;;;5011822;28;20041;-72
2021/12/24 14:29:06;;;;;;;42.08;26.45;;;;;;;;;;5011848;28;20100;-75
2021/12/24 14:31:56;;;;;;;52.17;28.58;;;;;;;;;;5011978;28;20049;-69
2021/12/24 14:34:31;;;;;;;55.20;28.13;;;;;;;;;;5012294;28;20038;-67
2021/12/24 14:37:03;;;;;;;50.92;28.17;;;;;;;;;;5012850;28;20034;-69
2021/12/24 14:39:55;;;;;;;51.50;28.77;;;;;;;;;;5012698;28;20054;-68
2021/12/24 14:42:26;;;;;;;45.67;26.65;;;;;;;;;;5012795;28;20404;-69
2021/12/24 14:44:56;;;;;;;50.53;29.00;;;;;;;;;;5011706;28;20045;-70
2021/12/24 14:47:25;;;;;;;47.45;27.55;;;;;;;;;;5012026;28;20022;-68
2021/12/24 14:50:01;;;;;;;56.65;30.10;;;;;;;;;;5011971;28;20046;-67
2021/12/24 14:52:27;;;;;;;48.85;29.58;;;;;;;;;;5012463;28;20495;-68
2021/12/24 14:55:13;;;;;;;46.13;27.25;;;;;;;;;;5011999;28;20030;-74
2021/12/24 14:57:52;;;;;;;50.72;28.30;;;;;;;;;;5010588;28;20038;-73
2021/12/24 15:00:23;;;;;;;66.18;31.40;;;;;;;;;;5012500;28;20128;-68
2021/12/24 15:02:49;;;;;;;59.65;30.25;;;;;;;;;;5015359;28;20083;-68
2021/12/24 15:05:30;;;;;;;51.90;27.45;;;;;;;;;;5016132;28;20026;-67
2021/12/24 15:07:58;;;;;;;38.17;22.92;;;;;;;;;;5015789;28;20371;-73
2021/12/24 15:10:25;;;;;;;39.70;21.70;;;;;;;;;;5015462;28;20025;-74
2021/12/24 15:12:59;;;;;;;41.70;21.73;;;;;;;;;;5015785;28;20042;-68
2021/12/24 15:15:27;;;;;;;53.70;25.58;;;;;;;;;;5015530;28;20033;-71
2021/12/24 15:17:53;;;;;;;109.18;47.33;;;;;;;;;;5014093;28;20092;-76
2021/12/24 15:20:20;;;;;;;47.63;28.63;;;;;;;;;;5015567;28;20147;-74
2021/12/24 15:22:47;;;;;;;42.45;22.98;;;;;;;;;;5015499;28;20376;-74
2021/12/24 15:25:13;;;;;;;34.65;18.75;;;;;;;;;;5015570;28;20030;-67
2021/12/24 15:27:39;;;;;;;91.80;45.92;;;;;;;;;;5015658;28;20106;-68
2021/12/24 15:30:10;;;;;;;138.20;69.93;;;;;;;;;;5015486;28;20036;-73
2021/12/24 15:32:36;;;;;;;87.72;44.88;;;;;;;;;;5015480;28;20107;-71
2021/12/24 15:35:04;;;;;;;58.38;31.58;;;;;;;;;;5015425;28;20049;-68
2021/12/24 15:37:30;;;;;;;45.00;21.83;;;;;;;;;;5015757;28;20030;-77
2021/12/24 15:39:55;;;;;;;41.40;21.40;;;;;;;;;;5015407;28;20453;-75
2021/12/24 15:42:25;;;;;;;39.28;22.13;;;;;;;;;;5015572;28;20041;-71
2021/12/24 15:44:50;;;;;;;40.63;22.27;;;;;;;;;;5015359;28;20068;-72
2021/12/24 15:47:16;;;;;;;39.35;21.40;;;;;;;;;;5008694;28;20393;-69
2021/12/24 15:49:43;;;;;;;57.00;33.28;;;;;;;;;;4996682;28;20052;-68
2021/12/24 15:52:09;;;;;;;56.20;29.35;;;;;;;;;;4995715;28;20034;-68
2021/12/24 15:54:35;;;;;;;51.10;30.17;;;;;;;;;;4995413;28;20118;-69
2021/12/24 15:57:03;;;;;;;49.45;29.08;;;;;;;;;;4994131;28;20469;-69
2021/12/24 15:59:33;;;;;;;63.85;28.83;;;;;;;;;;4995395;28;20035;-69
2021/12/24 16:02:00;;;;;;;58.00;31.55;;;;;;;;;;4994697;28;20062;-70
2021/12/24 16:04:26;;;;;;;62.22;30.52;;;;;;;;;;4995102;28;20080;-66
2021/12/24 16:06:53;;;;;;;58.90;30.67;;;;;;;;;;4995392;28;20121;-66
2021/12/24 16:09:23;;;;;;;54.20;29.70;;;;;;;;;;4992368;28;20023;-65
2021/12/24 16:11:50;;;;;;;59.97;29.38;;;;;;;;;;5012639;28;20030;-66
2021/12/24 16:14:17;;;;;;;50.92;28.90;;;;;;;;;;5012306;28;20018;-66
2021/12/24 16:16:44;;;;;;;46.45;26.17;;;;;;;;;;5013545;28;20079;-67
2021/12/24 16:19:11;;;;;;;49.53;28.67;;;;;;;;;;5013214;28;20029;-67
2021/12/24 16:21:38;;;;;;;48.53;27.17;;;;;;;;;;5013433;28;20044;-68
2021/12/24 16:24:05;;;;;;;48.22;29.15;;;;;;;;;;5013990;28;20025;-68
2021/12/24 16:26:32;;;;;;;63.53;33.75;;;;;;;;;;5012893;28;20391;-66
2021/12/24 16:28:58;;;;;;;64.35;35.45;;;;;;;;;;5013627;28;20045;-71
2021/12/24 16:31:23;;;;;;;57.63;31.02;;;;;;;;;;5013431;28;20042;-66